Time;durP1;ratioP1;P1;durP2;ratioP2;P2;SDS_P1;SDS_P2;PMS_P1;PMS_P2;Temp;Humidity;BMP_temperature;BMP_pressure;BME280_temperature;BME280_humidity;BME280_pressure;Samples;Min_cycle;Max_cycle;Signal;HPM_P1;HPM_P2
2021/12/14 00:00:53;;;;;;;26.33;18.70;;;8.40;65.40;;;;;;4994446;28;20034;-67
2021/12/14 00:03:22;;;;;;;28.35;17.15;;;8.40;65.50;;;;;;4994534;28;20038;-68
2021/12/14 00:05:51;;;;;;;29.92;18.60;;;8.40;65.30;;;;;;4993791;28;20554;-73
2021/12/14 00:08:18;;;;;;;27.88;17.92;;;8.40;65.10;;;;;;4977320;28;20069;-73
2021/12/14 00:11:11;;;;;;;26.90;18.13;;;8.40;65.20;;;;;;4994036;28;20081;-65
2021/12/14 00:16:06;;;;;;;24.35;17.73;;;8.40;64.90;;;;;;4994242;28;20063;-74
2021/12/14 00:18:36;;;;;;;28.92;17.77;;;8.30;65.10;;;;;;4993939;28;20030;-68
2021/12/14 00:21:21;;;;;;;27.48;17.92;;;8.30;65.30;;;;;;4993383;28;20093;-70
2021/12/14 00:24:07;;;;;;;25.48;17.02;;;8.30;64.90;;;;;;4994052;28;20030;-75
2021/12/14 00:26:49;;;;;;;27.00;16.88;;;8.20;65.30;;;;;;4976105;28;20073;-67
2021/12/14 00:29:38;;;;;;;26.48;17.02;;;8.20;65.30;;;;;;4993967;28;20105;-66
2021/12/14 00:32:09;;;;;;;25.80;16.88;;;8.20;65.70;;;;;;4993365;28;20038;-67
2021/12/14 00:34:38;;;;;;;28.13;16.60;;;8.10;65.70;;;;;;4993868;28;20042;-66
2021/12/14 00:37:07;;;;;;;25.08;16.42;;;8.10;65.60;;;;;;4993656;28;20058;-67
2021/12/14 00:39:33;;;;;;;26.73;17.45;;;8.10;65.50;;;;;;4993554;28;20034;-67
2021/12/14 00:41:59;;;;;;;22.73;15.63;;;8.00;65.50;;;;;;4993815;28;20030;-65
2021/12/14 00:44:26;;;;;;;23.20;15.15;;;8.00;65.70;;;;;;4993915;28;20064;-70
2021/12/14 00:46:53;;;;;;;27.67;16.50;;;8.00;65.90;;;;;;4994195;28;20030;-76
2021/12/14 00:49:19;;;;;;;23.23;14.95;;;7.90;65.90;;;;;;4978070;28;20133;-82
2021/12/14 00:51:47;;;;;;;26.20;14.73;;;7.90;65.60;;;;;;4977941;28;20038;-82
2021/12/14 00:54:16;;;;;;;24.85;16.10;;;7.90;66.80;;;;;;4978015;28;20023;-75
2021/12/14 00:56:43;;;;;;;24.55;15.82;;;7.90;66.10;;;;;;4994504;28;20023;-81
2021/12/14 00:59:10;;;;;;;23.63;15.10;;;7.90;65.80;;;;;;4993954;28;20018;-82
2021/12/14 01:01:44;;;;;;;25.85;16.90;;;7.90;65.90;;;;;;4994149;28;20054;-71
2021/12/14 01:04:19;;;;;;;27.08;15.88;;;7.90;66.00;;;;;;4976263;28;20137;-76
2021/12/14 01:06:47;;;;;;;23.58;15.35;;;7.80;66.10;;;;;;4993695;28;20014;-78
2021/12/14 01:09:18;;;;;;;23.23;15.52;;;7.80;66.30;;;;;;4976366;28;20032;-74
2021/12/14 01:11:46;;;;;;;23.95;15.10;;;7.80;66.30;;;;;;4993732;28;20499;-80
2021/12/14 01:14:32;;;;;;;23.15;15.55;;;7.80;66.80;;;;;;4993899;28;20054;-82
2021/12/14 01:17:13;;;;;;;20.38;15.00;;;7.80;66.70;;;;;;4980600;28;20030;-78
2021/12/14 01:19:46;;;;;;;22.25;15.43;;;7.80;66.60;;;;;;4998337;28;20045;-78
2021/12/14 01:25:13;;;;;;;23.38;14.93;;;7.80;67.00;;;;;;4982476;28;20089;-75
2021/12/14 01:28:10;;;;;;;22.55;15.02;;;7.80;67.00;;;;;;4997663;28;20023;-77
2021/12/14 01:31:14;;;;;;;21.13;14.45;;;7.70;67.10;;;;;;4997808;28;20109;-73
2021/12/14 01:33:47;;;;;;;24.10;15.18;;;7.70;67.20;;;;;;4984795;28;20476;-71
2021/12/14 01:36:50;;;;;;;23.65;15.57;;;7.60;66.70;;;;;;4980076;28;20523;-78
2021/12/14 01:42:27;;;;;;;25.27;15.85;;;7.60;67.50;;;;;;5008214;28;20098;-69
2021/12/14 01:45:08;;;;;;;25.13;15.73;;;7.60;67.50;;;;;;4990725;28;20051;-72
2021/12/14 01:47:42;;;;;;;26.92;15.88;;;7.60;67.30;;;;;;5004606;28;20507;-69
2021/12/14 01:50:32;;;;;;;28.13;17.00;;;7.60;67.70;;;;;;4987922;28;20108;-68
2021/12/14 01:52:58;;;;;;;26.10;15.95;;;7.50;67.50;;;;;;5001906;28;20039;-75
2021/12/14 01:55:28;;;;;;;24.77;16.67;;;7.50;67.50;;;;;;4997886;28;20061;-65
2021/12/14 01:57:57;;;;;;;25.65;16.65;;;7.50;67.90;;;;;;4999196;28;20023;-75
2021/12/14 02:00:53;;;;;;;26.08;16.42;;;7.40;67.90;;;;;;4998836;28;20049;-77
2021/12/14 02:03:27;;;;;;;24.42;16.52;;;7.40;67.90;;;;;;4996748;28;20130;-78
2021/12/14 02:05:53;;;;;;;26.90;16.20;;;7.40;68.20;;;;;;4997013;28;20510;-77
2021/12/14 02:08:25;;;;;;;26.48;16.13;;;7.40;68.20;;;;;;4996944;28;20037;-77
2021/12/14 02:10:53;;;;;;;24.70;15.85;;;7.30;68.00;;;;;;4997124;28;20089;-77
2021/12/14 02:13:30;;;;;;;21.83;15.70;;;7.40;68.00;;;;;;4979567;28;20057;-78
2021/12/14 02:16:00;;;;;;;25.48;15.52;;;7.40;68.20;;;;;;4997218;28;20034;-75
2021/12/14 02:18:28;;;;;;;19.13;14.63;;;7.40;68.10;;;;;;4996888;28;20061;-72
2021/12/14 02:21:21;;;;;;;22.65;14.68;;;7.40;68.60;;;;;;4980287;28;20034;-70
2021/12/14 02:23:53;;;;;;;24.20;15.77;;;7.40;68.40;;;;;;4995532;28;20081;-72
2021/12/14 02:26:29;;;;;;;21.92;14.50;;;7.40;68.80;;;;;;4998821;28;20034;-76
2021/12/14 02:29:07;;;;;;;21.02;13.63;;;7.30;68.50;;;;;;4987747;28;20114;-67
2021/12/14 02:31:37;;;;;;;21.92;13.77;;;7.30;68.90;;;;;;4995522;28;20026;-72
2021/12/14 02:34:06;;;;;;;19.38;13.68;;;7.30;69.00;;;;;;5011697;28;20379;-71
2021/12/14 02:36:44;;;;;;;24.05;14.25;;;7.30;68.90;;;;;;5001144;28;20145;-72
2021/12/14 02:42:07;;;;;;;19.05;13.30;;;7.30;69.50;;;;;;4996350;28;20412;-74
2021/12/14 02:44:33;;;;;;;19.92;13.15;;;7.30;69.20;;;;;;4996348;28;20034;-70
2021/12/14 02:47:15;;;;;;;21.05;13.95;;;7.30;69.20;;;;;;4996118;28;20034;-81
2021/12/14 02:49:41;;;;;;;20.35;13.27;;;7.40;69.20;;;;;;4978791;28;20133;-76
2021/12/14 02:52:12;;;;;;;20.83;13.90;;;7.40;69.70;;;;;;4978839;28;20480;-77
2021/12/14 02:54:43;;;;;;;21.90;14.18;;;7.30;69.40;;;;;;4995862;28;20026;-74
2021/12/14 02:57:22;;;;;;;21.65;13.68;;;7.30;69.80;;;;;;4995818;28;20026;-70
2021/12/14 02:59:51;;;;;;;21.52;13.15;;;7.30;69.80;;;;;;4996477;28;20027;-72
2021/12/14 03:02:28;;;;;;;21.60;13.60;;;7.30;70.30;;;;;;4995973;28;20117;-66
2021/12/14 03:05:06;;;;;;;21.60;13.73;;;7.30;70.30;;;;;;4995966;28;20030;-66
2021/12/14 03:07:43;;;;;;;20.67;13.25;;;7.30;69.50;;;;;;4995835;28;20380;-70
2021/12/14 03:12:49;;;;;;;25.13;13.65;;;7.30;69.80;;;;;;4995460;28;20110;-80
2021/12/14 03:15:33;;;;;;;22.63;13.93;;;7.40;69.80;;;;;;4995294;28;20037;-74
2021/12/14 03:18:00;;;;;;;;;;;7.40;70.00;;;;;;4995387;28;20580;-70
2021/12/14 03:20:37;;;;;;;19.27;12.95;;;7.30;70.20;;;;;;4995530;28;19913;-80
2021/12/14 03:23:14;;;;;;;22.10;12.50;;;7.40;69.80;;;;;;4995259;28;20227;-76
2021/12/14 03:25:47;;;;;;;19.83;13.25;;;7.40;71.30;;;;;;4995509;28;20065;-78
2021/12/14 03:28:18;;;;;;;21.33;12.50;;;7.40;70.00;;;;;;4995394;28;20045;-77
2021/12/14 03:31:08;;;;;;;20.85;12.93;;;7.40;70.00;;;;;;4995474;28;20026;-72
2021/12/14 03:33:43;;;;;;;18.88;12.10;;;7.40;71.00;;;;;;4995366;28;20173;-73
2021/12/14 03:36:12;;;;;;;16.88;11.63;;;7.30;70.10;;;;;;4994845;28;20109;-69
2021/12/14 03:39:07;;;;;;;16.42;11.98;;;7.40;70.20;;;;;;4994221;28;20053;-75
2021/12/14 03:41:40;;;;;;;17.65;11.55;;;7.40;71.30;;;;;;4992803;28;20041;-77
2021/12/14 03:44:26;;;;;;;19.65;11.90;;;7.40;70.60;;;;;;4994878;28;20030;-68
2021/12/14 03:47:06;;;;;;;22.13;12.60;;;7.30;71.20;;;;;;4994650;28;20029;-69
2021/12/14 03:49:48;;;;;;;18.75;11.82;;;7.30;71.00;;;;;;4993807;28;20100;-71
2021/12/14 03:52:17;;;;;;;18.60;11.52;;;7.30;71.70;;;;;;4994725;28;20042;-76
2021/12/14 03:54:44;;;;;;;17.60;11.30;;;7.30;70.50;;;;;;4961469;28;20400;-67
2021/12/14 03:57:13;;;;;;;18.00;11.88;;;7.30;70.70;;;;;;4977258;28;20026;-78
2021/12/14 03:59:40;;;;;;;19.23;11.50;;;7.30;71.00;;;;;;4994615;28;20097;-69
2021/12/14 04:02:08;;;;;;;22.17;11.07;;;7.40;71.10;;;;;;4977013;28;20027;-72
2021/12/14 04:05:00;;;;;;;17.92;10.55;;;7.40;71.10;;;;;;4994394;28;20038;-74
2021/12/14 04:07:26;;;;;;;16.55;10.45;;;7.40;72.00;;;;;;4994290;28;20038;-77
2021/12/14 04:09:52;;;;;;;15.43;10.68;;;7.40;71.20;;;;;;4976962;28;20397;-71
2021/12/14 04:12:19;;;;;;;17.60;11.52;;;7.40;71.00;;;;;;4995003;28;20034;-70
2021/12/14 04:14:48;;;;;;;18.67;11.43;;;7.40;70.90;;;;;;4994248;28;20069;-67
2021/12/14 04:17:16;;;;;;;13.98;10.13;;;7.50;71.10;;;;;;4994176;28;20361;-68
2021/12/14 04:19:43;;;;;;;17.23;10.77;;;7.50;71.10;;;;;;4994080;28;20065;-65
2021/12/14 04:22:16;;;;;;;18.60;10.45;;;7.50;71.20;;;;;;4994106;28;20180;-73
2021/12/14 04:24:45;;;;;;;18.92;10.10;;;7.50;71.00;;;;;;4977073;28;20081;-75
2021/12/14 04:27:34;;;;;;;15.32;10.05;;;7.50;71.00;;;;;;4994392;28;20192;-71
2021/12/14 04:30:09;;;;;;;15.60;10.27;;;7.50;71.90;;;;;;4994373;28;20041;-73
2021/12/14 04:32:36;;;;;;;17.15;10.63;;;7.40;71.90;;;;;;4978515;28;20044;-66
2021/12/14 04:35:05;;;;;;;17.92;9.88;;;7.40;71.20;;;;;;4993964;28;20114;-67
2021/12/14 04:37:36;;;;;;;14.98;10.18;;;7.40;71.80;;;;;;4993703;28;20053;-66
2021/12/14 04:51:57;;;;;;;15.77;10.93;;;7.40;71.20;;;;;;4993723;28;20061;-73
2021/12/14 04:54:11;;;;;;;19.20;11.35;;;7.30;72.30;;;;;;4993741;28;20093;-69
2021/12/14 04:56:42;;;;;;;19.20;10.18;;;7.30;71.70;;;;;;4994219;28;20034;-68
2021/12/14 04:59:08;;;;;;;19.40;10.40;;;7.30;72.30;;;;;;4993846;28;20050;-72
2021/12/14 05:01:37;;;;;;;14.77;10.82;;;7.30;71.60;;;;;;4993566;28;20026;-76
2021/12/14 05:04:07;;;;;;;17.30;10.75;;;7.30;71.50;;;;;;4975969;28;20149;-67
2021/12/14 05:06:51;;;;;;;21.10;11.85;;;7.30;71.60;;;;;;4993754;28;20022;-69
2021/12/14 05:09:22;;;;;;;18.42;11.95;;;7.30;71.50;;;;;;4993630;28;20030;-69
2021/12/14 05:11:54;;;;;;;20.27;11.77;;;7.20;71.80;;;;;;4993538;28;20034;-68
2021/12/14 05:14:21;;;;;;;23.38;12.45;;;7.20;71.40;;;;;;4993661;28;20033;-69
2021/12/14 05:16:47;;;;;;;19.60;11.57;;;7.20;71.60;;;;;;4976568;28;20042;-65
2021/12/14 05:19:14;;;;;;;21.05;12.02;;;7.10;72.30;;;;;;4993616;28;20105;-71
2021/12/14 05:21:45;;;;;;;17.15;11.07;;;7.10;71.70;;;;;;4994185;28;20042;-71
2021/12/14 05:24:13;;;;;;;20.23;11.02;;;7.10;71.80;;;;;;4993862;28;20035;-68
2021/12/14 05:26:39;;;;;;;19.75;11.70;;;7.10;72.30;;;;;;4993629;28;20026;-68
2021/12/14 05:29:07;;;;;;;18.20;11.60;;;7.10;72.70;;;;;;4993349;28;20033;-66
2021/12/14 05:31:33;;;;;;;22.55;11.95;;;7.10;72.10;;;;;;4993561;28;20029;-72
2021/12/14 05:33:59;;;;;;;19.17;11.60;;;7.10;72.50;;;;;;4993477;28;20105;-66
2021/12/14 05:36:26;;;;;;;16.63;10.52;;;7.10;72.10;;;;;;4993446;28;20121;-68
2021/12/14 05:44:25;;;;;;;19.17;10.45;;;7.10;72.70;;;;;;4993752;28;20049;-66
2021/12/14 05:46:57;;;;;;;17.20;11.10;;;7.10;72.60;;;;;;4993561;28;20029;-67
2021/12/14 05:49:26;;;;;;;18.77;10.70;;;7.10;72.60;;;;;;4993362;28;20054;-68
2021/12/14 05:51:55;;;;;;;19.02;10.73;;;7.10;72.70;;;;;;4994101;28;20396;-70
2021/12/14 05:54:43;;;;;;;16.58;10.13;;;7.10;72.90;;;;;;4996326;28;20035;-66
2021/12/14 05:57:17;;;;;;;15.88;9.07;;;7.10;73.30;;;;;;4997210;28;20534;-68
2021/12/14 05:59:44;;;;;;;16.20;9.80;;;7.10;73.30;;;;;;4994175;28;20114;-69
2021/12/14 06:02:10;;;;;;;14.30;9.05;;;7.10;73.40;;;;;;4995541;28;20026;-70
2021/12/14 06:04:43;;;;;;;19.23;10.00;;;7.10;73.40;;;;;;4984933;28;20091;-70
2021/12/14 06:07:11;;;;;;;14.30;9.13;;;7.10;73.50;;;;;;5004946;28;20026;-65
2021/12/14 06:09:41;;;;;;;17.20;10.15;;;7.20;73.20;;;;;;5014296;28;20113;-74
2021/12/14 06:12:19;;;;;;;16.02;10.18;;;7.20;73.10;;;;;;5006506;28;20135;-69
2021/12/14 06:14:54;;;;;;;15.60;9.80;;;7.20;73.70;;;;;;4996996;28;20030;-68
2021/12/14 06:17:29;;;;;;;16.75;10.43;;;7.20;73.80;;;;;;4996688;28;20040;-67
2021/12/14 06:20:20;;;;;;;16.00;11.07;;;7.20;74.20;;;;;;4996821;28;20113;-67
2021/12/14 06:22:47;;;;;;;16.48;9.57;;;7.20;74.10;;;;;;4978677;28;20494;-66
2021/12/14 06:25:21;;;;;;;22.77;10.48;;;7.20;74.00;;;;;;4979130;28;20088;-66
2021/12/14 06:27:53;;;;;;;16.75;10.63;;;7.20;73.80;;;;;;4999973;28;20023;-66
2021/12/14 06:30:28;;;;;;;21.20;10.20;;;7.20;74.10;;;;;;4996835;28;20061;-69
2021/12/14 06:33:07;;;;;;;16.80;10.07;;;7.20;74.30;;;;;;4996086;28;20453;-67
2021/12/14 06:35:46;;;;;;;21.85;10.48;;;7.10;74.50;;;;;;4996038;28;20121;-67
2021/12/14 06:38:36;;;;;;;18.83;11.43;;;7.10;75.00;;;;;;4996007;28;20101;-67
2021/12/14 06:41:18;;;;;;;19.83;10.30;;;7.10;74.60;;;;;;4993349;28;20038;-65
2021/12/14 06:43:56;;;;;;;18.50;10.52;;;7.10;74.30;;;;;;4996212;28;20034;-67
2021/12/14 06:46:34;;;;;;;18.33;11.05;;;7.10;74.10;;;;;;4996150;28;20030;-66
2021/12/14 06:49:07;;;;;;;17.60;10.50;;;7.10;74.30;;;;;;4995914;28;20034;-67
2021/12/14 06:51:47;;;;;;;20.80;11.40;;;7.10;73.70;;;;;;4995375;28;20575;-70
2021/12/14 06:54:20;;;;;;;20.00;10.20;;;7.20;74.20;;;;;;4985679;28;20069;-67
2021/12/14 06:57:01;;;;;;;20.27;11.05;;;7.20;74.30;;;;;;4994862;28;20447;-65
2021/12/14 06:59:28;;;;;;;16.15;10.85;;;7.30;74.20;;;;;;4995562;28;20038;-65
2021/12/14 07:02:07;;;;;;;19.75;11.88;;;7.30;73.80;;;;;;4978290;28;20120;-68
2021/12/14 07:04:40;;;;;;;18.13;10.38;;;7.40;74.10;;;;;;4995793;28;20070;-68
2021/12/14 07:07:10;;;;;;;17.67;10.27;;;7.50;74.00;;;;;;4975850;28;20368;-69
2021/12/14 07:09:46;;;;;;;20.98;10.50;;;7.50;73.90;;;;;;4996327;28;20312;-77
2021/12/14 07:12:40;;;;;;;20.30;10.35;;;7.60;74.10;;;;;;5015056;28;20113;-66
2021/12/14 07:15:18;;;;;;;13.63;9.20;;;7.60;73.70;;;;;;5014810;28;20033;-67
2021/12/14 07:17:53;;;;;;;18.80;10.07;;;7.70;73.50;;;;;;5015174;28;20076;-67
2021/12/14 07:20:28;;;;;;;17.67;9.77;;;7.80;72.70;;;;;;4996165;28;20050;-73
2021/12/14 07:23:01;;;;;;;17.65;10.45;;;7.80;73.10;;;;;;5012947;28;20049;-76
2021/12/14 07:25:41;;;;;;;21.88;10.48;;;7.90;72.60;;;;;;5014846;28;20052;-69
2021/12/14 07:28:11;;;;;;;17.15;10.85;;;7.90;71.90;;;;;;4997486;28;20040;-67
2021/12/14 07:30:57;;;;;;;17.77;10.30;;;7.90;71.90;;;;;;5015412;28;20036;-76
2021/12/14 07:33:32;;;;;;;46.50;12.13;;;8.00;72.80;;;;;;5014758;28;20105;-67
2021/12/14 07:36:11;;;;;;;20.10;11.05;;;8.10;72.70;;;;;;5015425;28;20056;-68
2021/12/14 07:38:58;;;;;;;23.20;11.13;;;8.10;71.80;;;;;;5015227;28;20112;-67
2021/12/14 07:41:28;;;;;;;19.30;11.00;;;8.10;72.20;;;;;;5015342;28;20097;-72
2021/12/14 07:44:02;;;;;;;27.83;14.95;;;8.20;71.60;;;;;;5017182;28;20069;-79
2021/12/14 07:46:38;;;;;;;24.65;11.65;;;8.20;71.20;;;;;;5000606;28;20018;-72
2021/12/14 07:49:25;;;;;;;22.10;10.73;;;8.20;71.20;;;;;;5021870;28;20034;-74
2021/12/14 07:52:10;;;;;;;28.88;11.80;;;8.20;71.90;;;;;;5022436;28;20104;-77
2021/12/14 07:54:43;;;;;;;23.15;12.32;;;8.20;71.90;;;;;;5017706;28;20120;-71
2021/12/14 07:57:13;;;;;;;29.27;11.15;;;8.10;71.00;;;;;;5014523;28;20112;-71
2021/12/14 07:59:40;;;;;;;22.38;10.52;;;8.10;70.90;;;;;;5015103;28;20036;-67
2021/12/14 08:02:19;;;;;;;26.13;11.43;;;8.00;71.10;;;;;;5015574;28;20030;-68
2021/12/14 08:04:52;;;;;;;23.77;10.50;;;8.00;72.10;;;;;;5015030;28;20030;-67
2021/12/14 08:07:35;;;;;;;27.08;12.35;;;8.00;72.10;;;;;;5015140;28;20026;-67
2021/12/14 08:10:16;;;;;;;17.67;10.63;;;8.00;71.40;;;;;;5014843;28;20368;-68
2021/12/14 08:12:42;;;;;;;16.50;10.75;;;8.00;72.50;;;;;;5015012;28;20030;-72
2021/12/14 08:15:21;;;;;;;18.17;10.30;;;8.00;71.80;;;;;;5015177;28;20072;-68
2021/12/14 08:18:07;;;;;;;23.00;10.88;;;8.10;72.60;;;;;;5015642;28;20036;-73
2021/12/14 08:20:37;;;;;;;18.13;11.45;;;8.20;71.80;;;;;;5016554;28;20080;-78
2021/12/14 08:23:12;;;;;;;20.80;10.45;;;8.20;72.00;;;;;;4999297;28;20092;-74
2021/12/14 08:25:41;;;;;;;20.15;10.13;;;8.30;72.10;;;;;;5014725;28;20080;-81
2021/12/14 08:28:07;;;;;;;16.95;10.10;;;8.30;71.80;;;;;;5016609;28;20026;-83
2021/12/14 08:30:35;;;;;;;17.23;10.23;;;8.40;71.80;;;;;;5002400;28;20026;-80
2021/12/14 08:33:03;;;;;;;17.40;10.02;;;8.50;71.90;;;;;;5019531;28;20021;-80
2021/12/14 08:35:29;;;;;;;18.90;10.63;;;8.50;71.50;;;;;;5014911;28;20076;-80
2021/12/14 08:38:00;;;;;;;19.38;10.48;;;8.60;71.70;;;;;;4999029;28;20076;-72
2021/12/14 08:40:41;;;;;;;17.02;10.13;;;8.70;71.80;;;;;;5017153;28;20201;-81
2021/12/14 08:43:20;;;;;;;18.08;10.35;;;8.70;71.80;;;;;;4999444;28;20113;-70
2021/12/14 08:45:54;;;;;;;16.90;10.18;;;8.80;71.80;;;;;;4997983;28;20051;-71
2021/12/14 08:48:46;;;;;;;19.60;10.35;;;8.90;71.90;;;;;;5014697;28;20084;-69
2021/12/14 08:51:20;;;;;;;24.58;12.63;;;9.00;72.70;;;;;;5013394;28;20132;-69
2021/12/14 08:54:17;;;;;;;18.40;9.80;;;9.00;72.30;;;;;;5013706;28;20507;-70
2021/12/14 08:56:53;;;;;;;18.98;10.52;;;9.10;72.60;;;;;;5013066;28;20026;-69
2021/12/14 08:59:23;;;;;;;23.00;11.65;;;9.10;71.70;;;;;;5013723;28;20029;-67
2021/12/14 09:01:50;;;;;;;19.55;10.25;;;9.20;71.80;;;;;;5013465;28;20018;-69
2021/12/14 09:04:43;;;;;;;21.33;11.00;;;9.30;71.80;;;;;;4995187;28;20041;-68
2021/12/14 09:07:22;;;;;;;15.90;9.38;;;9.40;71.90;;;;;;5013943;28;20022;-68
2021/12/14 09:09:48;;;;;;;16.77;10.15;;;9.50;71.80;;;;;;5013752;28;20026;-67
2021/12/14 09:12:30;;;;;;;18.50;10.20;;;9.60;71.90;;;;;;5013966;28;20495;-67
2021/12/14 09:15:07;;;;;;;19.17;10.95;;;9.70;71.80;;;;;;5010470;28;20046;-69
2021/12/14 09:17:35;;;;;;;21.67;10.52;;;9.70;71.70;;;;;;5013770;28;20029;-73
2021/12/14 09:20:49;;;;;;;16.63;10.10;;;9.80;71.70;;;;;;5013682;28;20030;-67
2021/12/14 09:23:21;;;;;;;21.00;10.13;;;9.90;71.70;;;;;;5012416;28;20049;-68
2021/12/14 09:25:49;;;;;;;19.77;10.32;;;10.00;70.60;;;;;;5013490;28;20036;-70
2021/12/14 09:28:28;;;;;;;16.52;9.52;;;10.10;70.40;;;;;;5012933;28;20022;-66
2021/12/14 09:30:58;;;;;;;17.10;9.63;;;10.20;70.30;;;;;;5012948;28;20415;-67
2021/12/14 09:33:26;;;;;;;19.65;10.10;;;10.30;70.10;;;;;;5012921;28;20427;-68
2021/12/14 09:35:57;;;;;;;19.77;9.70;;;10.40;70.00;;;;;;5012587;28;20117;-67
2021/12/14 09:38:32;;;;;;;22.08;9.95;;;10.40;69.80;;;;;;5011848;28;20365;-70
2021/12/14 09:41:03;;;;;;;13.88;9.80;;;10.50;69.70;;;;;;5016640;28;20484;-68
2021/12/14 09:43:32;;;;;;;14.30;9.98;;;10.60;69.50;;;;;;4999189;28;20030;-68
2021/12/14 09:46:00;;;;;;;18.60;10.77;;;10.70;69.20;;;;;;4999407;28;20034;-67
2021/12/14 09:48:34;;;;;;;17.08;9.73;;;10.80;69.10;;;;;;5016515;28;20057;-69
2021/12/14 09:51:10;;;;;;;14.95;9.60;;;10.90;69.10;;;;;;5016588;28;20076;-68
2021/12/14 09:53:40;;;;;;;16.33;8.65;;;11.00;68.70;;;;;;5016622;28;20037;-69
2021/12/14 09:56:10;;;;;;;19.70;9.82;;;11.10;68.70;;;;;;5017150;28;20090;-67
2021/12/14 09:58:42;;;;;;;15.50;9.60;;;11.20;68.50;;;;;;5016149;28;20036;-71
2021/12/14 10:01:19;;;;;;;18.77;9.18;;;11.30;68.10;;;;;;4999456;28;20026;-67
2021/12/14 10:03:52;;;;;;;18.70;8.75;;;11.40;67.70;;;;;;5017340;28;20034;-72
2021/12/14 10:06:26;;;;;;;15.05;7.80;;;11.50;68.00;;;;;;5017267;28;20124;-67
2021/12/14 10:09:02;;;;;;;15.43;7.57;;;11.60;67.60;;;;;;4999326;28;20037;-67
2021/12/14 10:14:45;;;;;;;18.70;7.68;;;11.80;66.80;;;;;;5017164;28;20026;-69
2021/12/14 10:17:14;;;;;;;13.10;7.57;;;11.80;66.00;;;;;;5003125;28;20034;-67
2021/12/14 10:19:42;;;;;;;14.57;7.45;;;11.90;66.00;;;;;;5016825;28;20030;-67
2021/12/14 10:22:23;;;;;;;11.23;6.90;;;12.00;65.50;;;;;;5016457;28;20030;-69
2021/12/14 10:24:56;;;;;;;10.02;6.72;;;12.10;65.10;;;;;;5016066;28;20030;-67
2021/12/14 10:27:26;;;;;;;13.40;7.47;;;12.20;65.20;;;;;;4998585;28;20054;-68
2021/12/14 10:29:54;;;;;;;11.63;6.70;;;12.30;64.60;;;;;;5015964;28;20022;-68
2021/12/14 10:32:25;;;;;;;11.82;6.50;;;12.30;63.70;;;;;;5016211;28;20076;-70
2021/12/14 10:34:56;;;;;;;13.25;6.93;;;12.40;63.50;;;;;;4998596;28;20072;-68
2021/12/14 10:37:55;;;;;;;10.45;6.65;;;12.50;64.30;;;;;;5016113;28;20037;-69
2021/12/14 10:43:15;;;;;;;10.50;6.60;;;12.70;63.00;;;;;;5015706;28;20065;-71
2021/12/14 10:45:56;;;;;;;10.77;6.53;;;12.80;62.60;;;;;;5015351;28;20061;-67
2021/12/14 10:48:27;;;;;;;9.77;6.10;;;12.90;62.70;;;;;;5015036;28;20022;-67
2021/12/14 10:50:54;;;;;;;10.20;6.05;;;13.00;61.60;;;;;;5015497;28;20118;-68
2021/12/14 10:53:22;;;;;;;12.48;5.78;;;13.10;61.40;;;;;;5015201;28;20037;-68
2021/12/14 10:55:57;;;;;;;11.23;6.20;;;13.10;61.60;;;;;;5015647;28;20032;-67
2021/12/14 10:58:26;;;;;;;10.85;6.20;;;13.20;61.60;;;;;;4997306;28;20072;-68
2021/12/14 11:01:06;;;;;;;12.00;6.28;;;13.30;61.10;;;;;;5014475;28;20354;-67
2021/12/14 11:03:58;;;;;;;12.35;7.00;;;13.30;60.90;;;;;;5014880;28;20041;-67
2021/12/14 11:06:30;;;;;;;12.73;6.50;;;13.40;60.80;;;;;;5014916;28;20026;-67
2021/12/14 11:09:42;;;;;;;14.27;6.90;;;13.50;60.70;;;;;;5014799;28;20511;-67
2021/12/14 11:12:27;;;;;;;15.35;7.47;;;13.60;60.40;;;;;;4999147;28;20041;-68
2021/12/14 11:15:00;;;;;;;9.50;5.75;;;13.70;60.30;;;;;;5015048;28;20451;-68
2021/12/14 11:20:36;;;;;;;9.95;6.13;;;13.80;60.00;;;;;;5015209;28;20495;-65
2021/12/14 11:23:11;;;;;;;10.98;6.28;;;13.90;59.80;;;;;;5011181;28;20042;-68
2021/12/14 11:25:58;;;;;;;14.35;6.45;;;14.00;59.60;;;;;;5015117;28;20049;-66
2021/12/14 11:28:40;;;;;;;10.75;5.93;;;14.10;59.60;;;;;;4996760;28;20029;-67
2021/12/14 11:31:12;;;;;;;13.70;6.72;;;14.10;59.80;;;;;;5014534;28;20037;-66
2021/12/14 11:33:56;;;;;;;11.35;6.53;;;14.20;59.50;;;;;;5014836;28;20026;-66
2021/12/14 11:36:33;;;;;;;10.85;6.40;;;14.30;59.60;;;;;;5014829;28;20034;-66
2021/12/14 11:39:08;;;;;;;11.05;6.82;;;14.40;59.30;;;;;;5012569;28;20084;-67
2021/12/14 11:41:47;;;;;;;14.57;7.00;;;14.50;59.30;;;;;;5015622;28;20038;-70
2021/12/14 11:44:25;;;;;;;10.35;6.85;;;14.60;59.30;;;;;;5014391;28;20434;-68
2021/12/14 11:50:35;;;;;;;12.13;7.28;;;14.70;59.30;;;;;;5014554;28;20107;-69
2021/12/14 11:53:18;;;;;;;10.88;6.53;;;14.80;59.10;;;;;;5014152;28;20057;-67
2021/12/14 11:55:51;;;;;;;10.18;6.25;;;14.90;59.30;;;;;;5014038;28;20475;-68
2021/12/14 11:58:48;;;;;;;10.93;6.60;;;15.00;59.60;;;;;;5014051;28;20034;-67
2021/12/14 12:01:20;;;;;;;12.10;6.95;;;15.10;58.80;;;;;;5012789;28;20419;-68
2021/12/14 12:03:56;;;;;;;13.80;6.65;;;15.20;58.70;;;;;;5013596;28;20037;-69
2021/12/14 12:09:46;;;;;;;9.30;5.53;;;15.40;57.90;;;;;;4993214;28;20088;-69
2021/12/14 12:12:20;;;;;;;9.93;5.25;;;15.50;57.60;;;;;;4996223;28;20029;-67
2021/12/14 12:15:05;;;;;;;7.70;4.90;;;15.50;57.10;;;;;;5013579;28;20037;-69
2021/12/14 12:17:45;;;;;;;9.93;5.38;;;15.60;57.20;;;;;;5013105;28;20379;-66
2021/12/14 12:20:48;;;;;;;9.82;6.55;;;15.70;57.30;;;;;;5013597;28;20034;-67
2021/12/14 12:23:17;;;;;;;11.65;6.30;;;15.70;56.00;;;;;;5013388;28;20029;-69
2021/12/14 12:25:51;;;;;;;9.40;5.90;;;15.90;56.20;;;;;;5013723;28;20108;-67
2021/12/14 12:28:28;;;;;;;;;;;15.90;55.90;;;;;;4980925;28;20044;-68
2021/12/14 12:31:05;;;;;;;11.48;4.85;;;15.90;54.30;;;;;;5013955;28;20334;-79
2021/12/14 12:33:37;;;;;;;9.00;5.25;;;16.00;55.60;;;;;;5014054;28;20038;-68
2021/12/14 12:36:24;;;;;;;11.98;5.35;;;16.00;55.60;;;;;;5013810;28;20052;-75
2021/12/14 12:39:06;;;;;;;10.68;5.25;;;16.10;54.70;;;;;;5022786;28;20111;-70
2021/12/14 12:41:58;;;;;;;10.93;5.30;;;16.00;55.20;;;;;;5019183;28;20109;-68
2021/12/14 12:44:37;;;;;;;8.68;5.60;;;16.10;55.10;;;;;;5015248;28;20065;-71
2021/12/14 12:47:18;;;;;;;9.23;5.07;;;16.20;54.50;;;;;;5013979;28;20026;-69
2021/12/14 12:49:53;;;;;;;12.23;5.85;;;16.20;54.70;;;;;;5013419;28;20049;-71
2021/12/14 12:52:20;;;;;;;10.85;5.53;;;16.30;54.30;;;;;;5013247;28;20046;-71
2021/12/14 12:55:01;;;;;;;10.35;5.50;;;16.30;54.00;;;;;;5013096;28;20026;-70
2021/12/14 12:57:32;;;;;;;9.50;5.30;;;16.30;54.00;;;;;;5013188;28;20447;-71
2021/12/14 13:00:28;;;;;;;13.07;6.10;;;16.40;53.90;;;;;;5013463;28;20029;-69
2021/12/14 13:03:13;;;;;;;10.80;5.65;;;16.40;54.40;;;;;;4997575;28;20122;-76
2021/12/14 13:06:02;;;;;;;10.48;5.85;;;16.40;54.30;;;;;;5013512;28;20088;-78
2021/12/14 13:08:46;;;;;;;10.93;5.85;;;16.40;54.40;;;;;;5013016;28;20018;-67
2021/12/14 13:11:20;;;;;;;10.27;5.93;;;16.50;54.70;;;;;;5013341;28;20454;-68
2021/12/14 13:13:59;;;;;;;9.32;5.50;;;16.50;54.60;;;;;;5017227;28;20024;-70
2021/12/14 13:16:40;;;;;;;13.38;6.00;;;16.50;54.60;;;;;;5017190;28;20379;-69
2021/12/14 13:19:23;;;;;;;9.93;5.47;;;16.50;53.80;;;;;;5016618;28;20321;-71
2021/12/14 13:22:10;;;;;;;9.27;4.93;;;16.50;53.70;;;;;;4999412;28;20423;-73
2021/12/14 13:24:45;;;;;;;9.77;4.50;;;16.60;54.10;;;;;;4999792;28;20038;-67
2021/12/14 13:27:24;;;;;;;8.65;4.22;;;16.60;54.40;;;;;;4999549;28;20103;-67
2021/12/14 13:30:05;;;;;;;8.75;5.13;;;16.60;53.60;;;;;;5014692;28;20112;-68
2021/12/14 13:32:39;;;;;;;7.80;4.18;;;16.70;54.00;;;;;;5017016;28;20033;-68
2021/12/14 13:35:28;;;;;;;8.10;4.35;;;16.70;53.10;;;;;;5017405;28;20072;-70
2021/12/14 13:38:07;;;;;;;7.38;4.30;;;16.70;53.90;;;;;;5000221;28;20045;-68
2021/12/14 13:40:40;;;;;;;10.57;4.18;;;16.80;53.00;;;;;;5016672;28;20030;-71
2021/12/14 13:43:17;;;;;;;7.18;3.83;;;16.80;52.80;;;;;;4999560;28;20104;-68
2021/12/14 13:46:01;;;;;;;7.55;3.45;;;16.90;53.20;;;;;;5017242;28;20509;-75
2021/12/14 13:48:33;;;;;;;6.40;3.20;;;16.80;52.20;;;;;;5017305;28;20514;-82
2021/12/14 13:51:06;;;;;;;8.00;3.33;;;16.80;51.40;;;;;;4999314;28;20107;-69
2021/12/14 13:53:33;;;;;;;6.60;3.90;;;16.80;51.70;;;;;;5017095;28;20383;-71
2021/12/14 13:56:03;;;;;;;8.82;3.85;;;16.90;51.70;;;;;;5017051;28;20029;-68
2021/12/14 13:58:33;;;;;;;8.05;3.45;;;16.90;51.80;;;;;;4999996;28;20022;-68
2021/12/14 14:01:07;;;;;;;11.15;4.03;;;17.10;51.70;;;;;;5019664;28;20582;-67
2021/12/14 14:03:36;;;;;;;7.25;3.90;;;17.20;50.70;;;;;;5017838;28;20029;-76
2021/12/14 14:06:06;;;;;;;6.85;3.72;;;17.20;51.50;;;;;;5017185;28;20021;-73